Salgado Filho International Airport

SBPA · Río Grande del Sur, Brasil

METAR pasados SBPA · Aeropuerto Internacional Salgado Filho

A continuación puedes ver los METAR de los últimos días. Selecciona un año para ver los METAR más antiguos, desde el año 2007 en adelante.

27 de mayo de 2024

Hora Código Tiempo Temp. Visibilidad Cielo nuboso Viento METAR/SPECI
10:00
I
15 °C 2 km 500 ft 030° 030° 3 kt METAR SBCO 271300Z 03003KT 2000 RA BR OVC005 15/15 Q1021
09:00
I
15 °C 9 km 800 ft 100° 100° 10 kt METAR SBCO 271200Z 10010KT 9000 BKN008 OVC060 15/15 Q1021
08:00
I
15 °C 4 km 6.000 ft 100° 100° 7 kt METAR SBCO 271100Z 10007KT 4000 -RA BR SCT010 OVC060 15/14 Q1021
07:00
V
15 °C 10 km+ 7.000 ft 110° 110° 8 kt METAR SBCO 271000Z 11008KT 9999 -RA SCT030 OVC070 15/14 Q1021
06:00
V
14 °C 10 km+ 7.000 ft 120° 120° 6 kt METAR SBCO 270900Z 12006KT 9999 -RA SCT030 OVC070 14/14 Q1021
05:00
V
14 °C 9 km 7.000 ft 100° 100° 2 kt METAR SBCO 270800Z 10002KT 9000 -RA SCT030 OVC070 14/13 Q1021
04:00
V
14 °C 10 km+ 7.000 ft 100° 100° 5 kt METAR SBCO 270700Z 10005KT 9999 -RA FEW030 OVC070 14/13 Q1022
03:00
V
14 °C 10 km+ 8.000 ft 110° 110° 5 kt METAR SBCO 270600Z 11005KT 9999 FEW035 BKN080 14/13 Q1022
02:00
V
14 °C 10 km+ 7.000 ft 110° 110° 6 kt METAR SBCO 270500Z 11006KT 9999 FEW010 BKN070 14/13 Q1023
01:00
V
13 °C 10 km+ 7.000 ft 110° 110° 6 kt METAR SBCO 270400Z 11006KT 9999 FEW010 BKN070 13/13 Q1024
00:00
V
13 °C 10 km+ 8.000 ft 100° 100° 4 kt METAR SBCO 270300Z 10004KT 9999 FEW010 BKN080 13/12 Q1024

26 de mayo de 2024

Hora Código Tiempo Temp. Visibilidad Cielo nuboso Viento METAR/SPECI
23:00
V
13 °C 10 km+ 8.000 ft 130° 130° 5 kt METAR SBCO 270200Z 13005KT 9999 FEW035 BKN080 13/11 Q1025
22:00
V
13 °C 10 km+ 7.000 ft 120° 120° 2 kt METAR SBCO 270100Z 12002KT 9999 FEW035 BKN070 13/11 Q1025
21:00
V
13 °C 10 km+ 7.000 ft 110° 110° 4 kt METAR SBCO 270000Z 11004KT 9999 FEW035 BKN070 13/11 Q1025
20:00
V
12 °C 10 km+ 7.000 ft 120° 120° 6 kt METAR SBCO 262300Z 12006KT 9999 FEW035 BKN070 12/10 Q1025
19:00
V
13 °C 10 km+ 7.000 ft 110° 110° 5 kt METAR SBCO 262200Z 11005KT 9999 FEW040 BKN070 13/11 Q1025
18:00
V
13 °C 10 km+ 7.000 ft 120° 120° 11 kt METAR SBCO 262100Z 12011KT 9999 FEW040 BKN070 13/10 Q1025
17:00
V
14 °C 10 km+ 7.000 ft 120° 120° 10 kt METAR SBCO 262000Z 12010KT 9999 SCT040 BKN070 14/09 Q1025
16:00
V
15 °C 10 km+ 3.500 ft 120° 120° 9 kt METAR SBCO 261900Z 12009KT 9999 BKN035 15/09 Q1026
15:00
V
15 °C 10 km+ 3.500 ft 130° 130° 8 kt METAR SBCO 261800Z 13008KT 9999 BKN035 15/09 Q1025
14:00
M
15 °C 10 km+ 3.000 ft 150° 150° 7 kt METAR SBCO 261700Z 15007KT 9999 SCT026 BKN030 15/10 Q1025
13:00
V
14 °C 10 km+ 4.000 ft 140° 140° 6 kt METAR SBCO 261600Z 14006KT 9999 SCT020 BKN040 14/10 Q1027
12:00
V
14 °C 10 km+ 4.300 ft 140° 140° 6 kt METAR SBCO 261500Z 14006KT 9999 SCT026 BKN043 14/10 Q1028
11:00
V
13 °C 10 km+ 4.000 ft 150° 150° 5 kt METAR SBCO 261400Z 15005KT 9999 FEW019 BKN040 13/09 Q1029
10:00
V
12 °C 10 km+ 4.000 ft 140° 140° 4 kt METAR SBCO 261300Z 14004KT 9999 BKN040 12/09 Q1029
09:00
V
11 °C 10 km+ 3.500 ft Var Var 2 kt METAR SBCO 261200Z VRB02KT 9999 OVC035 11/09 Q1029
08:00
V
11 °C 10 km+ 4.000 ft Var Var 2 kt METAR SBCO 261100Z VRB02KT 9999 BKN040 11/09 Q1028
07:00
V
10 °C 10 km+ 4.000 ft Var Var 1 kt METAR SBCO 261000Z VRB01KT 9999 BKN040 10/09 Q1027
06:00
V
10 °C 10 km+ 4.000 ft Var Var 2 kt METAR SBCO 260900Z VRB02KT 9999 FEW014 BKN040 10/08 Q1027
05:00
M
11 °C 10 km+ 1.400 ft 190° 190° 2 kt METAR SBCO 260800Z 19002KT 9999 BKN014 OVC025 11/09 Q1027
04:00
M
11 °C 10 km+ 1.000 ft 200° 200° 4 kt METAR SBCO 260700Z 20004KT 170V240 9999 BKN010 OVC023 11/08 Q1027
03:00
M
11 °C 10 km+ 1.000 ft Var Var 2 kt METAR SBCO 260600Z VRB02KT 9999 BKN010 OVC023 11/09 Q1027
02:00
I
11 °C 8 km 900 ft Var Var 2 kt METAR SBCO 260500Z VRB02KT 8000 BKN009 OVC020 11/10 Q1027
01:00
I
11 °C 7 km 600 ft 220° 220° 5 kt METAR SBCO 260400Z 22005KT 7000 -RA BKN006 OVC020 11/10 Q1027
00:00
I
11 °C 5 km 500 ft Var Var 2 kt METAR SBCO 260300Z VRB02KT 5000 -RA BKN005 OVC018 11/10 Q1028

25 de mayo de 2024

Hora Código Tiempo Temp. Visibilidad Cielo nuboso Viento METAR/SPECI
23:00
I
11 °C 5 km 500 ft 300° 300° 3 kt METAR SBCO 260200Z 30003KT 240V340 5000 -RA BR BKN005 OVC018 11/11 Q1028
22:00
I
11 °C 5 km 500 ft 310° 310° 5 kt METAR SBCO 260100Z 31005KT 5000 -RA BR BKN005 OVC018 11/10 Q1027
21:00
M
11 °C 10 km+ 2.000 ft 310° 310° 6 kt METAR SBCO 260000Z 31006KT 9999 SCT007 OVC020 11/10 Q1027
20:00
M
11 °C 10 km+ 2.000 ft 330° 330° 5 kt METAR SBCO 252300Z 33005KT 9999 -RA SCT010 BKN020 OVC070 11/10 Q1027
19:00
M
11 °C 10 km+ 2.000 ft 310° 310° 3 kt METAR SBCO 252200Z 31003KT 9999 BKN020 BKN026 11/10 Q1026
18:00
M
11 °C 10 km+ 1.900 ft 270° 270° 4 kt METAR SBCO 252100Z 27004KT 9999 FEW009 BKN019 BKN040 11/09 Q1026
17:00
M
12 °C 10 km+ 1.900 ft 240° 240° 3 kt METAR SBCO 252000Z 24003KT 210V270 9999 FEW009 BKN019 12/09 Q1025
16:00
M
12 °C 10 km+ 2.000 ft 270° 270° 6 kt METAR SBCO 251900Z 27006KT 9999 BKN020 BKN028 12/08 Q1025
15:00
M
12 °C 10 km+ 2.000 ft 300° 300° 7 kt METAR SBCO 251800Z 30007KT 9999 BKN020 BKN033 12/08 Q1025
14:00
M
12 °C 10 km+ 2.000 ft 260° 260° 5 kt METAR SBCO 251700Z 26005KT 200V310 9999 BKN020 12/07 Q1025
13:00
M
12 °C 10 km+ 2.000 ft 260° 260° 7 kt METAR SBCO 251600Z 26007KT 9999 BKN020 12/08 Q1026
12:00
M
11 °C 10 km+ 1.700 ft 270° 270° 9 kt METAR SBCO 251500Z 27009KT 9999 SCT013 BKN017 BKN026 11/08 Q1026
11:00
M
11 °C 10 km+ 1.300 ft 270° 270° 10 kt METAR SBCO 251400Z 27010KT 9999 BKN013 BKN020 11/09 Q1027
10:00
I
10 °C 2 km 800 ft 280° 280° 9 kt METAR SBCO 251300Z 28009KT 2000 -RADZ BR BKN008 BKN011 OVC020 10/09 Q1027
09:00
I
10 °C 3 km 1.400 ft 290° 290° 9 kt METAR SBCO 251200Z 29009KT 3000 -RADZ BR FEW009 BKN014 OVC020 10/08 Q1026
08:00
M
11 °C 10 km+ 2.000 ft 270° 270° 10 kt METAR SBCO 251100Z 27010KT 9999 SCT014 BKN020 11/07 Q1025
07:00
M
11 °C 8 km 2.300 ft 250° 250° 10 kt METAR SBCO 251000Z 25010KT 8000 SCT014 OVC023 11/07 Q1024
06:00
M
11 °C 10 km+ 2.300 ft 260° 260° 9 kt METAR SBCO 250900Z 26009KT 9999 SCT014 OVC023 11/08 Q1023
05:00
M
11 °C 9 km 1.400 ft 260° 260° 10 kt METAR SBCO 250800Z 26010KT 9000 BKN014 BKN030 11/08 Q1023
04:00
M
11 °C 8 km 1.400 ft 260° 260° 11 kt METAR SBCO 250700Z 26011KT 8000 BKN014 BKN050 11/08 Q1022
03:00
M
11 °C 8 km 1.400 ft 260° 260° 12 kt METAR SBCO 250600Z 26012KT 8000 BKN014 OVC025 11/08 Q1021
Cambiar esta información